Time;durP1;ratioP1;P1;durP2;ratioP2;P2;SDS_P1;SDS_P2;PMS_P1;PMS_P2;Temp;Humidity;BMP_temperature;BMP_pressure;BME280_temperature;BME280_humidity;BME280_pressure;Samples;Min_cycle;Max_cycle;Signal;HPM_P1;HPM_P2
2021/11/01 00:01:04;;;;;;;7.03;1.43;;;12.60;99.50;;;;;;8279034;28;20291;-77
2021/11/01 00:05:05;;;;;;;3.43;1.30;;;12.50;99.30;;;;;;8280031;28;20479;-76
2021/11/01 00:09:06;;;;;;;6.63;1.67;;;12.40;99.30;;;;;;8277512;28;20465;-78
2021/11/01 00:13:07;;;;;;;2.60;0.90;;;12.40;99.20;;;;;;8283979;28;20449;-77
2021/11/01 00:17:08;;;;;;;10.53;2.10;;;12.30;99.20;;;;;;8272690;28;20251;-77
2021/11/01 00:21:09;;;;;;;7.23;1.50;;;12.30;99.30;;;;;;8282763;28;20199;-76
2021/11/01 00:25:10;;;;;;;4.43;2.00;;;12.30;99.40;;;;;;8275788;28;20221;-76
2021/11/01 00:29:11;;;;;;;7.47;1.47;;;12.20;99.50;;;;;;8264357;28;20523;-77
2021/11/01 00:33:12;;;;;;;6.37;1.17;;;12.20;99.60;;;;;;8282395;28;20193;-77
2021/11/01 00:37:12;;;;;;;5.30;1.33;;;12.10;99.60;;;;;;8265979;28;20187;-77
2021/11/01 00:41:13;;;;;;;1.03;0.93;;;12.10;99.60;;;;;;8289139;28;20195;-76
2021/11/01 00:45:14;;;;;;;6.00;1.70;;;12.20;99.70;;;;;;8280508;28;20183;-77
2021/11/01 00:49:14;;;;;;;7.40;1.63;;;12.20;99.70;;;;;;8284826;28;20197;-77
2021/11/01 00:53:15;;;;;;;4.40;1.00;;;12.20;99.60;;;;;;8262838;28;20475;-77
2021/11/01 00:57:16;;;;;;;8.70;1.80;;;12.20;99.80;;;;;;8284771;28;20185;-76
2021/11/01 01:01:17;;;;;;;3.80;1.57;;;12.30;99.60;;;;;;8280940;28;20477;-76
2021/11/01 01:05:18;;;;;;;9.63;1.20;;;12.30;99.70;;;;;;8265979;28;20520;-76
2021/11/01 01:09:19;;;;;;;4.83;1.43;;;12.30;99.60;;;;;;8286481;28;20195;-76
2021/11/01 01:13:22;;;;;;;10.77;1.67;;;12.30;99.60;;;;;;8285950;28;20194;-77
2021/11/01 01:17:25;;;;;;;5.90;1.07;;;12.30;99.60;;;;;;8276769;28;20178;-76
2021/11/01 01:25:52;;;;;;;2.50;1.20;;;12.40;99.70;;;;;;8283544;28;20499;-76
2021/11/01 01:29:53;;;;;;;10.43;1.57;;;12.30;99.80;;;;;;8282536;28;20484;-77
2021/11/01 01:33:54;;;;;;;1.40;1.30;;;12.30;99.80;;;;;;8275159;28;23385;-77
2021/11/01 01:37:56;;;;;;;2.80;2.07;;;12.30;99.70;;;;;;8281285;28;20289;-76
2021/11/01 01:41:56;;;;;;;6.20;1.47;;;12.30;99.80;;;;;;8285432;28;20208;-77
2021/11/01 01:45:57;;;;;;;4.87;1.43;;;12.30;99.70;;;;;;8281600;28;20444;-77
2021/11/01 01:49:58;;;;;;;4.63;1.17;;;12.30;99.70;;;;;;8289678;28;20250;-76
2021/11/01 01:54:00;;;;;;;15.10;2.57;;;12.30;99.70;;;;;;8278415;28;20275;-76
2021/11/01 01:58:01;;;;;;;4.40;1.40;;;12.30;99.70;;;;;;8266370;28;20438;-76
2021/11/01 02:02:03;;;;;;;1.80;0.83;;;12.30;99.70;;;;;;8288213;28;21071;-76
2021/11/01 02:06:10;;;;;;;8.03;1.93;;;12.40;99.80;;;;;;8245068;28;20203;-76
2021/11/01 02:10:14;;;;;;;4.20;1.33;;;12.30;99.80;;;;;;8280175;28;20481;-76
2021/11/01 02:14:20;;;;;;;4.03;1.30;;;12.30;99.80;;;;;;8283422;28;20478;-76
2021/11/01 02:18:23;;;;;;;8.83;1.50;;;12.30;99.90;;;;;;8264364;28;20440;-76
2021/11/01 02:22:42;;;;;;;2.30;1.80;;;12.30;99.90;;;;;;8283114;28;20477;-76
2021/11/01 02:26:43;;;;;;;2.07;1.50;;;12.40;99.90;;;;;;8282973;28;20449;-76
2021/11/01 02:30:44;;;;;;;2.83;1.03;;;12.40;99.90;;;;;;8277362;28;20429;-77
2021/11/01 02:34:45;;;;;;;2.00;1.10;;;12.40;99.90;;;;;;8280419;28;20217;-76
2021/11/01 02:38:50;;;;;;;1.10;1.00;;;12.40;99.90;;;;;;8281726;28;20990;-76
2021/11/01 02:42:51;;;;;;;3.80;1.17;;;12.40;99.90;;;;;;8257800;28;20493;-76
2021/11/01 02:46:51;;;;;;;1.50;1.30;;;12.40;99.90;;;;;;8277274;28;20856;-76
2021/11/01 02:50:52;;;;;;;5.57;1.40;;;12.40;99.90;;;;;;8276974;28;20191;-76
2021/11/01 02:54:53;;;;;;;1.50;1.27;;;12.40;99.90;;;;;;8273205;28;20278;-76
2021/11/01 02:58:54;;;;;;;3.87;1.67;;;12.40;99.90;;;;;;8280626;28;20209;-75
2021/11/01 03:02:55;;;;;;;2.27;1.50;;;12.40;99.90;;;;;;8263696;28;20484;-76
2021/11/01 03:06:58;;;;;;;4.63;1.43;;;12.30;99.90;;;;;;8259687;28;20437;-77
2021/11/01 03:11:01;;;;;;;6.03;1.53;;;12.40;99.90;;;;;;8277179;28;20436;-76
2021/11/01 03:15:03;;;;;;;7.03;1.67;;;12.30;99.90;;;;;;8275389;28;20443;-76
2021/11/01 03:19:08;;;;;;;9.37;1.67;;;12.30;99.90;;;;;;8261382;28;20853;-76
2021/11/01 03:23:20;;;;;;;2.07;1.50;;;12.20;99.90;;;;;;8283055;28;20475;-76
2021/11/01 03:27:21;;;;;;;7.70;2.10;;;12.20;99.90;;;;;;8261210;28;20847;-76
2021/11/01 03:31:24;;;;;;;2.90;1.90;;;12.10;99.90;;;;;;8263101;28;20445;-75
2021/11/01 03:35:26;;;;;;;2.10;1.23;;;12.00;99.90;;;;;;8278013;28;20519;-76
2021/11/01 03:39:27;;;;;;;6.50;1.50;;;12.00;99.90;;;;;;8283852;28;20932;-77
2021/11/01 03:43:32;;;;;;;9.40;2.10;;;11.90;99.90;;;;;;8263293;28;20480;-77
2021/11/01 03:47:40;;;;;;;9.53;1.87;;;11.80;99.90;;;;;;8274886;28;20510;-76
2021/11/01 03:51:51;;;;;;;9.33;1.53;;;11.70;99.90;;;;;;8259177;28;20499;-75
2021/11/01 03:55:52;;;;;;;1.27;1.17;;;11.70;99.90;;;;;;8266237;28;20498;-77
2021/11/01 03:59:54;;;;;;;4.73;2.07;;;11.60;99.90;;;;;;8286256;28;20498;-77
2021/11/01 04:03:55;;;;;;;5.93;1.50;;;11.50;99.90;;;;;;8282408;28;20653;-76
2021/11/01 04:07:56;;;;;;;2.97;1.40;;;11.50;99.90;;;;;;8267043;28;20554;-76
2021/11/01 04:11:56;;;;;;;3.43;1.77;;;11.50;99.90;;;;;;8280540;28;20677;-76
2021/11/01 04:16:01;;;;;;;3.43;1.60;;;11.50;99.90;;;;;;8284165;28;20492;-76
2021/11/01 04:24:13;;;;;;;2.23;1.70;;;11.40;99.90;;;;;;8286143;28;20526;-76
2021/11/01 04:28:14;;;;;;;2.80;1.80;;;11.30;99.90;;;;;;8270979;28;20447;-76
2021/11/01 04:32:24;;;;;;;8.40;2.03;;;11.30;99.90;;;;;;8276704;28;20453;-76
2021/11/01 04:36:25;;;;;;;1.57;1.10;;;11.30;99.90;;;;;;8282577;28;20261;-76
2021/11/01 04:53:05;;;;;;;8.93;2.40;;;11.50;99.90;;;;;;8281200;28;20497;-76
2021/11/01 04:57:06;;;;;;;4.47;1.60;;;11.50;99.90;;;;;;8287198;28;20447;-76
2021/11/01 05:01:07;;;;;;;9.57;1.40;;;11.40;99.90;;;;;;8281010;28;20514;-75
2021/11/01 05:05:08;;;;;;;8.90;1.50;;;11.40;99.90;;;;;;8259349;28;20487;-75
2021/11/01 05:09:16;;;;;;;8.10;1.90;;;11.40;99.90;;;;;;8283930;28;20609;-76
2021/11/01 05:13:24;;;;;;;2.73;1.30;;;11.40;99.90;;;;;;8284075;28;20443;-76
2021/11/01 05:17:33;;;;;;;6.17;1.53;;;11.30;99.90;;;;;;8283900;28;20435;-77
2021/11/01 05:29:35;;;;;;;1.57;1.47;;;11.30;99.60;;;;;;8283388;28;20490;-77
2021/11/01 05:37:42;;;;;;;4.50;1.60;;;11.30;99.40;;;;;;8283296;28;20762;-76
2021/11/01 05:41:43;;;;;;;3.17;1.20;;;11.20;99.30;;;;;;8285403;28;20467;-76
2021/11/01 05:45:44;;;;;;;3.00;1.20;;;11.20;99.20;;;;;;8267399;28;20181;-75
2021/11/01 05:49:44;;;;;;;10.60;1.83;;;11.20;99.10;;;;;;8280986;28;20459;-77
2021/11/01 05:53:49;;;;;;;3.13;1.40;;;11.20;99.00;;;;;;8284235;28;20185;-77
2021/11/01 05:58:16;;;;;;;1.23;1.03;;;11.20;98.80;;;;;;8283963;28;20180;-77
2021/11/01 06:06:53;;;;;;;6.03;1.07;;;11.30;98.60;;;;;;8280030;28;20518;-75
2021/11/01 06:13:24;;;;;;;7.83;1.57;;;11.30;98.60;;;;;;8280402;28;20598;-75
2021/11/01 06:15:12;;;;;;;3.27;1.23;;;11.30;98.40;;;;;;8281996;28;20772;-75
2021/11/01 06:19:13;;;;;;;4.50;1.50;;;11.40;98.30;;;;;;8264481;28;20451;-76
2021/11/01 06:23:14;;;;;;;3.57;1.40;;;11.40;98.30;;;;;;8284158;28;20893;-76
2021/11/01 06:27:16;;;;;;;10.60;1.43;;;11.30;98.30;;;;;;8279043;28;20616;-75
2021/11/01 06:31:23;;;;;;;10.03;3.30;;;11.30;98.20;;;;;;8263462;28;20504;-75
2021/11/01 06:39:56;;;;;;;4.80;1.37;;;11.30;98.10;;;;;;8287026;28;20480;-75
2021/11/01 06:44:15;;;;;;;10.50;2.50;;;11.30;98.00;;;;;;8281021;28;20489;-75
2021/11/01 07:14:50;;;;;;;9.00;2.87;;;11.50;97.60;;;;;;8286091;28;20460;-76
2021/11/01 09:22:40;;;;;;;4.43;1.03;;;19.30;77.60;;;;;;8287317;28;20506;-76
2021/11/01 09:26:44;;;;;;;8.70;3.93;;;19.30;77.60;;;;;;8283942;28;20468;-77
2021/11/01 09:43:31;;;;;;;3.10;0.80;;;18.50;78.50;;;;;;8276594;28;21011;-76
2021/11/01 09:47:32;;;;;;;1.27;0.80;;;18.30;78.40;;;;;;8280382;28;20443;-77
2021/11/01 09:51:33;;;;;;;2.03;0.90;;;18.10;77.90;;;;;;8276466;28;21379;-76
2021/11/01 09:59:47;;;;;;;1.40;0.80;;;17.40;79.30;;;;;;8275553;28;20298;-77
2021/11/01 10:03:50;;;;;;;10.23;1.40;;;17.30;80.60;;;;;;8257816;28;20967;-76
2021/11/01 10:07:51;;;;;;;3.73;1.10;;;17.90;80.30;;;;;;8259495;28;20189;-77
2021/11/01 10:11:54;;;;;;;2.00;0.90;;;18.40;77.50;;;;;;8281034;28;20454;-77
2021/11/01 10:20:20;;;;;;;0.90;0.80;;;18.60;74.40;;;;;;8274492;28;20540;-76
2021/11/01 10:24:26;;;;;;;1.17;0.80;;;18.80;75.00;;;;;;8263006;28;20839;-75
2021/11/01 10:28:28;;;;;;;9.50;1.20;;;19.30;74.10;;;;;;8275777;28;21039;-76
2021/11/01 10:32:36;;;;;;;1.30;1.20;;;19.60;73.20;;;;;;8274828;28;20723;-76
2021/11/01 10:36:39;;;;;;;4.47;1.63;;;19.80;70.70;;;;;;8278341;28;20443;-76
2021/11/01 10:45:28;;;;;;;4.93;1.37;;;19.50;72.50;;;;;;8286524;28;20959;-77
2021/11/01 11:15:14;;;;;;;0.90;0.73;;;18.90;74.60;;;;;;8275874;28;20996;-77
2021/11/01 11:19:30;;;;;;;1.53;0.80;;;19.00;72.10;;;;;;8277728;28;20511;-75
2021/11/01 11:49:17;;;;;;;9.60;1.67;;;18.50;72.00;;;;;;8276333;28;20456;-75
2021/11/01 11:53:21;;;;;;;5.27;1.50;;;18.50;71.40;;;;;;8264110;28;20521;-76
2021/11/01 11:57:25;;;;;;;4.27;1.33;;;18.60;70.80;;;;;;8277495;28;20958;-76
2021/11/01 12:01:35;;;;;;;4.20;1.00;;;18.40;71.40;;;;;;8265872;28;20455;-74
2021/11/01 12:05:59;;;;;;;1.23;0.90;;;18.30;69.50;;;;;;8280496;28;20492;-76
2021/11/01 12:10:02;;;;;;;3.80;1.20;;;18.10;70.10;;;;;;8279269;28;20438;-74
2021/11/01 12:14:21;;;;;;;2.10;1.10;;;17.90;70.70;;;;;;8278001;28;20443;-75
2021/11/01 12:18:29;;;;;;;2.17;0.80;;;17.90;70.50;;;;;;8283604;28;20472;-75
2021/11/01 12:22:33;;;;;;;3.83;1.10;;;17.90;68.20;;;;;;8260173;28;20471;-75
2021/11/01 12:26:35;;;;;;;4.00;0.97;;;18.10;69.60;;;;;;8272112;28;20454;-74
2021/11/01 12:30:44;;;;;;;1.17;0.80;;;18.20;69.90;;;;;;8284755;28;20497;-73
2021/11/01 12:35:03;;;;;;;3.00;1.40;;;18.20;70.10;;;;;;8262672;28;20546;-73
2021/11/01 12:39:34;;;;;;;3.17;1.20;;;18.20;70.40;;;;;;8282669;28;20475;-74
2021/11/01 13:01:11;;;;;;;0.77;0.77;;;18.50;66.70;;;;;;8279918;28;20445;-77
2021/11/01 13:05:21;;;;;;;7.00;0.90;;;18.40;67.40;;;;;;8277135;28;20851;-76
2021/11/01 13:09:29;;;;;;;3.40;0.93;;;18.30;67.30;;;;;;8275310;28;20461;-77
2021/11/01 13:18:12;;;;;;;1.83;0.80;;;18.10;67.50;;;;;;6907010;28;10001207;-76
2021/11/01 13:22:25;;;;;;;1.13;1.03;;;18.10;67.40;;;;;;8284232;28;20473;-76
2021/11/01 13:39:28;;;;;;;5.60;1.00;;;17.80;67.40;;;;;;8289091;28;20441;-78
2021/11/01 13:43:30;;;;;;;5.03;0.97;;;18.00;68.00;;;;;;8263212;28;20479;-77
2021/11/01 13:47:46;;;;;;;4.63;1.07;;;18.10;68.20;;;;;;8286479;28;20792;-78
2021/11/01 13:51:50;;;;;;;7.50;1.50;;;18.20;68.20;;;;;;8282905;28;20483;-76
2021/11/01 13:56:04;;;;;;;1.53;0.77;;;18.30;67.70;;;;;;8270767;28;20526;-76
2021/11/01 14:00:32;;;;;;;3.67;1.10;;;18.20;67.40;;;;;;8291607;28;20530;-77
2021/11/01 14:17:31;;;;;;;0.80;0.70;;;17.60;69.60;;;;;;8290098;28;20961;-77
2021/11/01 14:27:03;;;;;;;1.30;1.20;;;17.20;69.60;;;;;;8288459;28;20474;-76
2021/11/01 15:38:16;;;;;;;5.03;1.50;;;15.30;75.40;;;;;;8282983;28;20828;-76
2021/11/01 16:21:01;;;;;;;3.33;1.70;;;13.80;80.30;;;;;;8282434;28;20462;-76
2021/11/01 16:25:02;;;;;;;4.73;1.70;;;13.70;80.60;;;;;;8261161;28;20479;-76
2021/11/01 16:29:10;;;;;;;5.13;1.30;;;13.70;80.90;;;;;;8266062;28;20969;-77
2021/11/01 16:33:12;;;;;;;9.90;2.00;;;13.60;81.40;;;;;;8293020;28;20438;-77
2021/11/01 16:41:28;;;;;;;5.47;2.17;;;13.40;81.60;;;;;;8283519;28;20554;-77
2021/11/01 16:45:37;;;;;;;3.70;1.70;;;13.40;82.10;;;;;;8271545;28;20488;-76
2021/11/01 16:49:38;;;;;;;2.07;1.80;;;13.30;82.30;;;;;;8265449;28;20457;-76
2021/11/01 16:53:48;;;;;;;8.20;2.90;;;13.20;82.80;;;;;;8276311;28;20978;-77
2021/11/01 16:57:55;;;;;;;5.50;1.93;;;13.10;83.10;;;;;;8263329;28;20188;-78
2021/11/01 17:02:06;;;;;;;4.80;2.10;;;13.00;83.50;;;;;;8280162;28;20431;-77
2021/11/01 17:23:33;;;;;;;4.13;1.93;;;12.70;84.90;;;;;;8280674;28;20615;-77
2021/11/01 18:45:48;;;;;;;5.03;2.17;;;12.60;88.80;;;;;;8273514;28;20474;-77
2021/11/01 18:54:20;;;;;;;7.70;3.43;;;12.40;89.60;;;;;;8277143;28;20443;-78
2021/11/01 18:58:27;;;;;;;2.90;2.10;;;12.30;90.00;;;;;;8276400;28;20450;-77
2021/11/01 19:06:44;;;;;;;12.43;2.67;;;12.10;90.30;;;;;;8279487;28;20503;-77
2021/11/01 20:08:13;;;;;;;4.80;2.00;;;11.60;92.00;;;;;;8287420;28;20433;-77
2021/11/01 21:25:15;;;;;;;2.73;1.33;;;11.70;92.70;;;;;;8289604;28;20455;-78
2021/11/01 21:29:16;;;;;;;11.70;1.30;;;11.70;92.70;;;;;;8274798;28;20452;-76
2021/11/01 21:33:21;;;;;;;2.93;1.63;;;11.70;92.80;;;;;;8269291;28;20446;-78
2021/11/01 21:37:22;;;;;;;1.50;1.40;;;11.60;92.80;;;;;;8266387;28;20773;-76
2021/11/01 21:41:26;;;;;;;2.83;1.20;;;11.60;92.90;;;;;;8279274;28;20447;-76
2021/11/01 21:45:27;;;;;;;5.80;2.27;;;11.60;93.00;;;;;;8257883;28;20212;-77
2021/11/01 21:49:27;;;;;;;1.87;1.10;;;11.50;93.10;;;;;;8279030;28;20433;-77
2021/11/01 21:53:30;;;;;;;3.40;1.27;;;11.50;93.20;;;;;;8277625;28;20280;-77
2021/11/01 21:57:40;;;;;;;1.73;0.90;;;11.40;93.40;;;;;;8274144;28;20181;-77
2021/11/01 22:22:55;;;;;;;3.80;1.67;;;11.30;93.80;;;;;;8279325;28;20527;-77
2021/11/01 22:56:32;;;;;;;2.90;1.20;;;11.10;94.40;;;;;;8276463;28;20451;-76
2021/11/01 23:00:37;;;;;;;4.03;1.73;;;11.10;94.50;;;;;;8272956;28;22197;-76
2021/11/01 23:05:04;;;;;;;4.03;2.33;;;11.10;94.60;;;;;;8277927;28;20586;-76
2021/11/01 23:35:00;;;;;;;7.07;1.63;;;11.10;94.90;;;;;;8274234;28;20514;-76
2021/11/01 23:39:02;;;;;;;3.10;1.23;;;11.20;95.00;;;;;;8260484;28;20474;-76
2021/11/01 23:43:03;;;;;;;2.43;1.07;;;11.30;94.60;;;;;;8271415;28;20273;-76
2021/11/01 23:47:05;;;;;;;1.93;0.93;;;11.40;94.40;;;;;;8264283;28;20428;-77
2021/11/01 23:51:09;;;;;;;3.73;1.00;;;11.40;94.20;;;;;;8275176;28;20684;-76
2021/11/01 23:55:10;;;;;;;2.07;1.13;;;11.50;94.00;;;;;;8276669;28;20447;-76
2021/11/01 23:59:11;;;;;;;3.77;1.43;;;11.50;93.70;;;;;;8261893;28;20471;-76
